OEDF/DMM METAR and TAF weather

Enter ICAO airport designator
Station Type Date Time Source
OEDF METAR 2021/07/27 22:00 UTC NOAA

OEDF 272200Z 16006KT CAVOK 35/27 Q0992 NOSIG


Station Type Date Time Source
OEDF Decoded METAR 2021/07/27 22:00 UTC NOAA

Dammam-King Fahd International Airport, Saudi Arabia (OEDF) 26-28N 049-47E
Jul 27, 2021 - 06:00 PM EDT / 2021.07.27 2200 UTC
Wind: from the SSE (160 degrees) at 7 MPH (6 KT):0
Visibility: greater than 7 mile(s):0
Temperature: 95 F (35 C)
Heat index: 115.7 F (46.5 C):1
Dew Point: 80 F (27 C)
Relative Humidity: 63%
Pressure (altimeter): 29.29 in. Hg (0992 hPa)
ob: OEDF 272200Z 16006KT CAVOK 35/27 Q0992 NOSIG
cycle: 22

Station Type Date Time Source
OEDF TAF 2021/07/27 18:33 UTC NOAA

TAF TAF OEDF 271600Z 2718/2824 VRB03KT 8000 NSC
TEMPO 2800/2806 4000 HZ
BECMG 2802/2804 30008KT

Example: see airport list